Dai2kousei — JD2542 — position and weather

sailwx.info

Track history (hours):
 
Tides and Currents Weather Stations Pressure Air Temp Water Temp Dewpoint Dewpoint Depression Visibility Wind Speed Wind Dir Waves Ship Positions

Dai2kousei

Last reported at 2015-Aug-28 23:32 UTC. Time now 2015-Aug-31 10:51 UTC.
Position N 34°07' E 135°01'.

Length 77 m; draft 4.2 m.

MMSI: 431000467.

Date/timePositionNaut miles runAvg speedWind from/ knotsBaromVisibWave heightAir tempDewpointWater temp
2015-Aug-28 23:32N 34°07' E 135°01'9 9.0
2015-Aug-28 22:33N 34°14' E 135°07'0 0.4
2015-Aug-28 21:33N 34°15' E 135°07'0 0.0
2015-Aug-28 20:33N 34°15' E 135°07'0 0.0
2015-Aug-28 19:33N 34°15' E 135°07'0 0.0
2015-Aug-28 18:34N 34°15' E 135°07'0 0.0
2015-Aug-28 17:33N 34°15' E 135°07'0 0.0
2015-Aug-28 16:34N 34°15' E 135°07'0 0.0
2015-Aug-28 15:33N 34°15' E 135°07'0 0.0
2015-Aug-28 14:33N 34°15' E 135°07'0 0.0
2015-Aug-28 13:33N 34°15' E 135°07'0 0.0
2015-Aug-28 12:33N 34°15' E 135°07'0 0.0
2015-Aug-28 11:33N 34°15' E 135°07'0 0.0
2015-Aug-28 10:34N 34°15' E 135°07'0 0.0
2015-Aug-28 09:33N 34°15' E 135°07'0 0.5
2015-Aug-28 08:32N 34°15' E 135°06'0 0.1
2015-Aug-28 07:33N 34°15' E 135°06'0 0.0
2015-Aug-28 06:33N 34°15' E 135°06'1 0.8
2015-Aug-28 05:33N 34°14' E 135°05'1311.9
2015-Aug-28 04:29N 34°02' E 135°02'6 0.2
2015-Aug-26 09:32N 34°08' E 135°02'7 7.4
2015-Aug-26 08:33N 34°15' E 135°06'0 0.0
2015-Aug-26 07:33N 34°15' E 135°06'0 0.0
2015-Aug-26 06:33N 34°15' E 135°06'0 0.0
2015-Aug-26 05:33N 34°15' E 135°06'0 0.0
2015-Aug-26 04:33N 34°15' E 135°06'0 0.0
2015-Aug-26 03:33N 34°15' E 135°06'0 0.1
2015-Aug-26 02:33N 34°15' E 135°06'0 0.0
2015-Aug-26 01:33N 34°15' E 135°06'0 0.1
2015-Aug-26 00:33N 34°15' E 135°06'0 0.0
2015-Aug-25 23:33N 34°15' E 135°06'0 0.0
2015-Aug-25 22:33N 34°15' E 135°06'0 0.1
2015-Aug-25 21:33N 34°15' E 135°06'0 0.0
2015-Aug-25 20:33N 34°15' E 135°06'0 0.4
2015-Aug-25 19:34N 34°15' E 135°06'0 0.4
2015-Aug-25 18:33N 34°15' E 135°07'0 0.0
2015-Aug-25 17:33N 34°15' E 135°07'0 0.0
2015-Aug-25 16:33N 34°15' E 135°07'0 0.0
2015-Aug-25 15:33N 34°15' E 135°07'0 0.0
2015-Aug-25 14:33N 34°15' E 135°07'0 0.0
2015-Aug-25 13:34N 34°15' E 135°07'0 0.0
2015-Aug-25 12:33N 34°15' E 135°07'0 0.0
2015-Aug-25 11:33N 34°15' E 135°07'0 0.0
2015-Aug-25 10:33N 34°15' E 135°07'0 0.0
2015-Aug-25 09:33N 34°15' E 135°07'0 0.0
2015-Aug-25 08:33N 34°15' E 135°07'0 0.3
2015-Aug-25 07:33N 34°15' E 135°07'0 0.0
2015-Aug-25 06:34N 34°15' E 135°07'0 0.0
2015-Aug-25 05:33N 34°15' E 135°07'0 0.0
2015-Aug-25 04:33N 34°15' E 135°07'0 0.0
2015-Aug-25 03:33N 34°15' E 135°07'0 0.0
2015-Aug-25 02:33N 34°15' E 135°07'0 0.0
2015-Aug-25 01:33N 34°15' E 135°07'0 0.0
2015-Aug-25 00:33N 34°15' E 135°07'0 0.0
2015-Aug-24 23:33N 34°15' E 135°07'0 0.0
2015-Aug-24 22:33N 34°15' E 135°07'0 0.0
2015-Aug-24 21:33N 34°15' E 135°07'0 0.0
2015-Aug-24 20:33N 34°15' E 135°07'0 0.0
2015-Aug-24 19:33N 34°15' E 135°07'0 0.0
2015-Aug-24 18:33N 34°15' E 135°07'0 0.0
2015-Aug-24 17:33N 34°15' E 135°07'0 0.0
2015-Aug-24 16:33N 34°15' E 135°07'0 0.0
2015-Aug-24 15:33N 34°15' E 135°07'0 0.0
2015-Aug-24 14:33N 34°15' E 135°07'0 0.0
2015-Aug-24 13:33N 34°15' E 135°07'0 0.0
2015-Aug-24 12:33N 34°15' E 135°07'0 0.0
2015-Aug-24 11:33N 34°15' E 135°07'0 0.0
2015-Aug-24 10:33N 34°15' E 135°07'0 0.0
2015-Aug-24 09:33N 34°15' E 135°07'0 0.0
2015-Aug-24 08:33N 34°15' E 135°07'0 0.0
2015-Aug-24 07:33N 34°15' E 135°07'0 0.0
2015-Aug-24 06:33N 34°15' E 135°07'0 0.1
2015-Aug-24 05:34N 34°15' E 135°07'2 1.6
2015-Aug-24 04:33N 34°15' E 135°05'0 0.0
2015-Aug-24 03:33N 34°15' E 135°05'0 0.0
2015-Aug-24 02:33N 34°15' E 135°05'0 0.1
2015-Aug-24 01:33N 34°15' E 135°05'0 0.1
2015-Aug-24 00:33N 34°15' E 135°05'0 0.0
2015-Aug-23 23:31N 34°15' E 135°05'1 1.3
2015-Aug-23 22:33N 34°14' E 135°04'1111.4
2015-Aug-23 21:33N 34°03' E 135°01'2 0.1
2015-Aug-22 08:30N 34°05' E 135°02'1010.7
2015-Aug-22 07:33N 34°14' E 135°06'1 0.6
2015-Aug-22 06:33N 34°15' E 135°07'0 0.0
2015-Aug-22 05:33N 34°15' E 135°07'0 0.0
2015-Aug-22 04:33N 34°15' E 135°07'0 0.0
2015-Aug-22 03:33N 34°15' E 135°07'0 0.0
2015-Aug-22 02:33N 34°15' E 135°07'0 0.0
2015-Aug-22 01:33N 34°15' E 135°07'0 0.0
2015-Aug-22 00:33N 34°15' E 135°07'0 0.0
2015-Aug-21 23:33N 34°15' E 135°07'0 0.0
2015-Aug-21 22:33N 34°15' E 135°07'0 0.0
2015-Aug-21 21:33N 34°15' E 135°07'0 0.0
2015-Aug-21 20:33N 34°15' E 135°07'9 8.7
2015-Aug-21 19:31N 34°07' E 135°02'0 0.0
2015-Aug-19 22:33N 34°06' E 135°02'9 9.0
2015-Aug-19 21:33N 34°14' E 135°07'0 0.5
2015-Aug-19 20:33N 34°15' E 135°07'0 0.0
2015-Aug-19 19:33N 34°15' E 135°07'0 0.0
2015-Aug-19 18:33N 34°15' E 135°07'0 0.0
2015-Aug-19 17:33N 34°15' E 135°07'0 0.0
2015-Aug-19 16:33N 34°15' E 135°07'0 0.0
2015-Aug-19 15:33N 34°15' E 135°07'0 0.0
2015-Aug-19 14:33N 34°15' E 135°07'0 0.0
2015-Aug-19 13:33N 34°15' E 135°07'0 0.0
2015-Aug-19 12:33N 34°15' E 135°07'0 0.0
2015-Aug-19 11:33N 34°15' E 135°07'0 0.0
2015-Aug-19 10:33N 34°15' E 135°07'0 0.0
2015-Aug-19 09:33N 34°15' E 135°07'0 0.0
2015-Aug-19 08:33N 34°15' E 135°07'1 0.9
2015-Aug-19 07:33N 34°15' E 135°06'0 0.1
2015-Aug-19 06:34N 34°15' E 135°06'0 0.1
2015-Aug-19 05:28N 34°15' E 135°06'0 0.0
2015-Aug-19 04:27N 34°15' E 135°06'0 0.0
2015-Aug-19 03:33N 34°15' E 135°06'0 0.0
2015-Aug-19 02:33N 34°15' E 135°06'0 0.1
2015-Aug-19 01:33N 34°15' E 135°06'0 0.0
2015-Aug-19 00:19N 34°15' E 135°06'  
Track history (hours):
 
Tides and Currents Weather Stations Pressure Air Temp Water Temp Dewpoint Dewpoint Depression Visibility Wind Speed Wind Dir Waves Ship Positions

Dai2kousei

Last reported at 2015-Aug-28 23:32 UTC. Time now 2015-Aug-31 10:51 UTC.
Position N 34°07' E 135°01'.

Length 77 m; draft 4.2 m.

MMSI: 431000467.

Date/timePositionNaut miles runAvg speedWind from/ knotsBaromVisibWave heightAir tempDewpointWater temp
2015-Aug-28 23:32N 34°07' E 135°01'9 9.0
2015-Aug-28 22:33N 34°14' E 135°07'0 0.4
2015-Aug-28 21:33N 34°15' E 135°07'0 0.0
2015-Aug-28 20:33N 34°15' E 135°07'0 0.0
2015-Aug-28 19:33N 34°15' E 135°07'0 0.0
2015-Aug-28 18:34N 34°15' E 135°07'0 0.0
2015-Aug-28 17:33N 34°15' E 135°07'0 0.0
2015-Aug-28 16:34N 34°15' E 135°07'0 0.0
2015-Aug-28 15:33N 34°15' E 135°07'0 0.0
2015-Aug-28 14:33N 34°15' E 135°07'0 0.0
2015-Aug-28 13:33N 34°15' E 135°07'0 0.0
2015-Aug-28 12:33N 34°15' E 135°07'0 0.0
2015-Aug-28 11:33N 34°15' E 135°07'0 0.0
2015-Aug-28 10:34N 34°15' E 135°07'0 0.0
2015-Aug-28 09:33N 34°15' E 135°07'0 0.5
2015-Aug-28 08:32N 34°15' E 135°06'0 0.1
2015-Aug-28 07:33N 34°15' E 135°06'0 0.0
2015-Aug-28 06:33N 34°15' E 135°06'1 0.8
2015-Aug-28 05:33N 34°14' E 135°05'1311.9
2015-Aug-28 04:29N 34°02' E 135°02'6 0.2
2015-Aug-26 09:32N 34°08' E 135°02'7 7.4
2015-Aug-26 08:33N 34°15' E 135°06'0 0.0
2015-Aug-26 07:33N 34°15' E 135°06'0 0.0
2015-Aug-26 06:33N 34°15' E 135°06'0 0.0
2015-Aug-26 05:33N 34°15' E 135°06'0 0.0
2015-Aug-26 04:33N 34°15' E 135°06'0 0.0
2015-Aug-26 03:33N 34°15' E 135°06'0 0.1
2015-Aug-26 02:33N 34°15' E 135°06'0 0.0
2015-Aug-26 01:33N 34°15' E 135°06'0 0.1
2015-Aug-26 00:33N 34°15' E 135°06'0 0.0
2015-Aug-25 23:33N 34°15' E 135°06'0 0.0
2015-Aug-25 22:33N 34°15' E 135°06'0 0.1
2015-Aug-25 21:33N 34°15' E 135°06'0 0.0
2015-Aug-25 20:33N 34°15' E 135°06'0 0.4
2015-Aug-25 19:34N 34°15' E 135°06'0 0.4
2015-Aug-25 18:33N 34°15' E 135°07'0 0.0
2015-Aug-25 17:33N 34°15' E 135°07'0 0.0
2015-Aug-25 16:33N 34°15' E 135°07'0 0.0
2015-Aug-25 15:33N 34°15' E 135°07'0 0.0
2015-Aug-25 14:33N 34°15' E 135°07'0 0.0
2015-Aug-25 13:34N 34°15' E 135°07'0 0.0
2015-Aug-25 12:33N 34°15' E 135°07'0 0.0
2015-Aug-25 11:33N 34°15' E 135°07'0 0.0
2015-Aug-25 10:33N 34°15' E 135°07'0 0.0
2015-Aug-25 09:33N 34°15' E 135°07'0 0.0
2015-Aug-25 08:33N 34°15' E 135°07'0 0.3
2015-Aug-25 07:33N 34°15' E 135°07'0 0.0
2015-Aug-25 06:34N 34°15' E 135°07'0 0.0
2015-Aug-25 05:33N 34°15' E 135°07'0 0.0
2015-Aug-25 04:33N 34°15' E 135°07'0 0.0
2015-Aug-25 03:33N 34°15' E 135°07'0 0.0
2015-Aug-25 02:33N 34°15' E 135°07'0 0.0
2015-Aug-25 01:33N 34°15' E 135°07'0 0.0
2015-Aug-25 00:33N 34°15' E 135°07'0 0.0
2015-Aug-24 23:33N 34°15' E 135°07'0 0.0
2015-Aug-24 22:33N 34°15' E 135°07'0 0.0
2015-Aug-24 21:33N 34°15' E 135°07'0 0.0
2015-Aug-24 20:33N 34°15' E 135°07'0 0.0
2015-Aug-24 19:33N 34°15' E 135°07'0 0.0
2015-Aug-24 18:33N 34°15' E 135°07'0 0.0
2015-Aug-24 17:33N 34°15' E 135°07'0 0.0
2015-Aug-24 16:33N 34°15' E 135°07'0 0.0
2015-Aug-24 15:33N 34°15' E 135°07'0 0.0
2015-Aug-24 14:33N 34°15' E 135°07'0 0.0
2015-Aug-24 13:33N 34°15' E 135°07'0 0.0
2015-Aug-24 12:33N 34°15' E 135°07'0 0.0
2015-Aug-24 11:33N 34°15' E 135°07'0 0.0
2015-Aug-24 10:33N 34°15' E 135°07'0 0.0
2015-Aug-24 09:33N 34°15' E 135°07'0 0.0
2015-Aug-24 08:33N 34°15' E 135°07'0 0.0
2015-Aug-24 07:33N 34°15' E 135°07'0 0.0
2015-Aug-24 06:33N 34°15' E 135°07'0 0.1
2015-Aug-24 05:34N 34°15' E 135°07'2 1.6
2015-Aug-24 04:33N 34°15' E 135°05'0 0.0
2015-Aug-24 03:33N 34°15' E 135°05'0 0.0
2015-Aug-24 02:33N 34°15' E 135°05'0 0.1
2015-Aug-24 01:33N 34°15' E 135°05'0 0.1
2015-Aug-24 00:33N 34°15' E 135°05'0 0.0
2015-Aug-23 23:31N 34°15' E 135°05'1 1.3
2015-Aug-23 22:33N 34°14' E 135°04'1111.4
2015-Aug-23 21:33N 34°03' E 135°01'2 0.1
2015-Aug-22 08:30N 34°05' E 135°02'1010.7
2015-Aug-22 07:33N 34°14' E 135°06'1 0.6
2015-Aug-22 06:33N 34°15' E 135°07'0 0.0
2015-Aug-22 05:33N 34°15' E 135°07'0 0.0
2015-Aug-22 04:33N 34°15' E 135°07'0 0.0
2015-Aug-22 03:33N 34°15' E 135°07'0 0.0
2015-Aug-22 02:33N 34°15' E 135°07'0 0.0
2015-Aug-22 01:33N 34°15' E 135°07'0 0.0
2015-Aug-22 00:33N 34°15' E 135°07'0 0.0
2015-Aug-21 23:33N 34°15' E 135°07'0 0.0
2015-Aug-21 22:33N 34°15' E 135°07'0 0.0
2015-Aug-21 21:33N 34°15' E 135°07'0 0.0
2015-Aug-21 20:33N 34°15' E 135°07'9 8.7
2015-Aug-21 19:31N 34°07' E 135°02'0 0.0
2015-Aug-19 22:33N 34°06' E 135°02'9 9.0
2015-Aug-19 21:33N 34°14' E 135°07'0 0.5
2015-Aug-19 20:33N 34°15' E 135°07'0 0.0
2015-Aug-19 19:33N 34°15' E 135°07'0 0.0
2015-Aug-19 18:33N 34°15' E 135°07'0 0.0
2015-Aug-19 17:33N 34°15' E 135°07'0 0.0
2015-Aug-19 16:33N 34°15' E 135°07'0 0.0
2015-Aug-19 15:33N 34°15' E 135°07'0 0.0
2015-Aug-19 14:33N 34°15' E 135°07'0 0.0
2015-Aug-19 13:33N 34°15' E 135°07'0 0.0
2015-Aug-19 12:33N 34°15' E 135°07'0 0.0
2015-Aug-19 11:33N 34°15' E 135°07'0 0.0
2015-Aug-19 10:33N 34°15' E 135°07'0 0.0
2015-Aug-19 09:33N 34°15' E 135°07'0 0.0
2015-Aug-19 08:33N 34°15' E 135°07'1 0.9
2015-Aug-19 07:33N 34°15' E 135°06'0 0.1
2015-Aug-19 06:34N 34°15' E 135°06'0 0.1
2015-Aug-19 05:28N 34°15' E 135°06'0 0.0
2015-Aug-19 04:27N 34°15' E 135°06'0 0.0
2015-Aug-19 03:33N 34°15' E 135°06'0 0.0
2015-Aug-19 02:33N 34°15' E 135°06'0 0.1
2015-Aug-19 01:33N 34°15' E 135°06'0 0.0
2015-Aug-19 00:19N 34°15' E 135°06'  

Dump ship's entire track history